Time;durP1;ratioP1;P1;durP2;ratioP2;P2;SDS_P1;SDS_P2;PMS_P1;PMS_P2;Temp;Humidity;BMP_temperature;BMP_pressure;BME280_temperature;BME280_humidity;BME280_pressure;Samples;Min_cycle;Max_cycle;Signal;HPM_P1;HPM_P2
2022/06/06 00:01:00;;;;;;;3.22;2.95;;;;;;;21.65;54.71;99745.88;10517826;28;20082;-82
2022/06/06 00:06:06;;;;;;;3.30;3.10;;;;;;;21.63;55.25;99740.63;10514588;28;20041;-82
2022/06/06 00:11:09;;;;;;;;;;;;;;;21.75;55.04;99749.47;10519393;28;20051;-82
2022/06/06 00:16:11;;;;;;;3.05;2.80;;;;;;;21.73;55.53;99748.72;10514801;28;20375;-82
2022/06/06 00:21:13;;;;;;;3.10;2.90;;;;;;;21.56;56.33;99747.47;10520848;28;20056;-82
2022/06/06 00:26:15;;;;;;;2.88;2.67;;;;;;;21.71;57.80;99748.03;10515796;28;20041;-83
2022/06/06 00:36:38;;;;;;;4.13;3.08;;;;;;;21.64;59.92;99736.97;10517067;28;20052;-82
2022/06/06 00:41:43;;;;;;;3.28;3.08;;;;;;;21.36;61.25;99745.56;10518775;28;20071;-82
2022/06/06 00:47:00;;;;;;;3.55;3.22;;;;;;;21.45;62.67;99747.47;10511405;28;20048;-82
2022/06/06 00:52:06;;;;;;;4.88;3.50;;;;;;;21.44;63.13;99759.16;10510715;28;20486;-82
2022/06/06 00:57:14;;;;;;;3.97;3.63;;;;;;;21.32;63.90;99757.47;10512095;28;20120;-82
2022/06/06 01:02:17;;;;;;;3.90;3.60;;;;;;;21.29;65.19;99752.34;10513182;28;20040;-83
2022/06/06 01:07:18;;;;;;;3.83;3.45;;;;;;;21.32;65.99;99754.81;10512090;28;20048;-83
2022/06/06 01:12:21;;;;;;;3.65;3.20;;;;;;;21.18;66.72;99747.88;10514219;28;20048;-83
2022/06/06 01:17:35;;;;;;;3.15;2.95;;;;;;;21.04;68.67;99740.97;10515648;28;20104;-82
2022/06/06 01:23:01;;;;;;;3.03;2.83;;;;;;;20.90;68.77;99742.06;10516413;28;20501;-82
2022/06/06 01:28:26;;;;;;;2.75;2.50;;;;;;;20.78;68.84;99742.16;10519124;28;20059;-83
2022/06/06 01:33:28;;;;;;;2.55;2.35;;;;;;;20.71;69.30;99751.63;10518182;28;20098;-82
2022/06/06 01:38:29;;;;;;;2.92;1.95;;;;;;;20.58;69.57;99765.91;10518357;28;20054;-82
2022/06/06 01:44:04;;;;;;;2.45;1.90;;;;;;;20.56;69.58;99754.53;10517620;28;20151;-81
2022/06/06 01:49:10;;;;;;;1.77;1.50;;;;;;;20.46;69.66;99768.69;10515467;28;20044;-83
2022/06/06 01:54:14;;;;;;;3.00;1.50;;;;;;;20.34;69.91;99786.47;10517256;28;20119;-83
2022/06/06 01:59:16;;;;;;;6.15;1.25;;;;;;;20.21;70.85;99799.91;10517833;28;20146;-82
2022/06/06 02:04:18;;;;;;;1.73;1.55;;;;;;;20.30;70.38;99807.22;10520350;28;20044;-83
2022/06/06 02:09:20;;;;;;;1.50;1.40;;;;;;;20.00;72.29;99817.50;10514906;28;20059;-82
2022/06/06 02:14:22;;;;;;;1.98;1.30;;;;;;;20.13;72.47;99824.50;10513706;28;20041;-83
2022/06/06 02:19:24;;;;;;;1.33;1.20;;;;;;;20.21;72.69;99825.75;10513522;28;20052;-82
2022/06/06 02:24:26;;;;;;;2.88;1.40;;;;;;;19.86;76.92;99830.06;10512379;28;20093;-84
2022/06/06 02:29:27;;;;;;;2.83;1.60;;;;;;;19.41;79.61;99828.88;10510922;28;20041;-84
2022/06/06 02:34:29;;;;;;;2.28;1.20;;;;;;;19.48;80.93;99824.84;10513476;28;20094;-83
2022/06/06 02:39:31;;;;;;;1.70;1.40;;;;;;;19.32;83.93;99835.72;10516760;28;20056;-83
2022/06/06 02:44:32;;;;;;;1.75;1.40;;;;;;;19.22;84.61;99828.50;10519794;28;20041;-83
2022/06/06 02:49:34;;;;;;;3.00;1.75;;;;;;;19.29;86.20;99829.75;10523044;28;20048;-82
2022/06/06 02:54:36;;;;;;;1.70;1.40;;;;;;;18.89;88.14;99838.72;10520246;28;20043;-84
2022/06/06 02:59:38;;;;;;;2.75;2.10;;;;;;;18.67;90.46;99852.63;10521495;28;20041;-82
2022/06/06 03:04:40;;;;;;;2.58;1.73;;;;;;;18.52;92.71;99856.34;10523215;28;20040;-83
2022/06/06 03:09:47;;;;;;;3.13;2.00;;;;;;;18.52;92.71;99859.00;10523360;28;20048;-81
2022/06/06 03:15:18;;;;;;;2.40;2.08;;;;;;;18.38;97.02;99864.41;10521568;28;20375;-82
2022/06/06 03:20:48;;;;;;;2.13;1.80;;;;;;;18.29;98.46;99860.56;10473719;28;20065;-82
2022/06/06 03:26:01;;;;;;;3.05;1.80;;;;;;;18.23;99.88;99852.97;10473619;28;20128;-83
2022/06/06 03:31:22;;;;;;;2.30;1.90;;;;;;;18.11;100.00;99859.97;10543647;22;20051;-82
2022/06/06 03:36:33;;;;;;;2.75;1.67;;;;;;;18.38;98.36;99851.97;10541489;28;20045;-82
2022/06/06 03:41:44;;;;;;;2.30;2.10;;;;;;;18.19;100.00;99853.25;10543253;28;20109;-82
2022/06/06 03:47:01;;;;;;;2.60;2.40;;;;;;;18.13;100.00;99847.41;10543285;28;20073;-83
2022/06/06 03:52:30;;;;;;;3.17;2.17;;;;;;;18.46;100.00;99858.56;10549912;28;20136;-83
2022/06/06 03:57:34;;;;;;;2.45;2.25;;;;;;;18.19;100.00;99872.75;10550252;28;20049;-83
2022/06/06 04:02:36;;;;;;;3.20;2.42;;;;;;;18.20;100.00;99878.94;10549654;28;20100;-83
2022/06/06 04:07:38;;;;;;;3.78;3.22;;;;;;;18.13;100.00;99879.31;10549322;28;20147;-83
2022/06/06 04:12:43;;;;;;;2.35;2.15;;;;;;;18.21;100.00;99880.63;10530870;28;20045;-83
2022/06/06 04:18:09;;;;;;;2.90;2.60;;;;;;;18.33;100.00;99878.03;10548803;28;20084;-83
2022/06/06 04:23:33;;;;;;;2.63;1.90;;;;;;;18.38;100.00;99878.56;10529412;28;20047;-83
2022/06/06 04:28:52;;;;;;;2.47;2.30;;;;;;;18.34;100.00;99870.91;10515819;28;20047;-83
2022/06/06 04:34:09;;;;;;;2.28;2.05;;;;;;;18.46;100.00;99877.19;10512827;28;20041;-83
2022/06/06 04:39:20;;;;;;;2.17;2.03;;;;;;;18.76;100.00;99891.13;10510298;28;20162;-83
2022/06/06 04:44:44;;;;;;;2.90;2.15;;;;;;;18.94;99.94;99891.69;10509879;28;20103;-83
2022/06/06 04:49:47;;;;;;;2.33;2.22;;;;;;;18.70;100.00;99894.22;10509266;28;20048;-83
2022/06/06 04:54:52;;;;;;;3.17;1.90;;;;;;;18.71;99.41;99898.56;10492973;28;20086;-83
2022/06/06 04:59:57;;;;;;;1.98;1.85;;;;;;;18.73;100.00;99899.34;10512092;28;20076;-83
2022/06/06 05:04:58;;;;;;;1.65;1.55;;;;;;;18.88;97.82;99900.94;10510857;28;20040;-83
2022/06/06 05:10:19;;;;;;;1.48;1.38;;;;;;;19.20;91.43;99905.88;10520302;28;20029;-83
2022/06/06 05:15:29;;;;;;;2.40;1.50;;;;;;;19.06;94.74;99916.63;10524909;28;20375;-83
2022/06/06 05:20:48;;;;;;;1.90;1.80;;;;;;;19.12;92.39;99914.41;10511320;28;20097;-83
2022/06/06 05:26:20;;;;;;;2.33;1.60;;;;;;;19.14;88.95;99922.28;10511103;28;20049;-83
2022/06/06 05:31:46;;;;;;;1.70;1.60;;;;;;;19.13;87.19;99925.91;10511508;28;20052;-83
2022/06/06 05:37:05;;;;;;;1.50;1.40;;;;;;;19.34;87.44;99919.06;10516907;28;20037;-82
2022/06/06 05:42:34;;;;;;;1.50;1.30;;;;;;;19.77;86.64;99924.09;10515135;28;20378;-82
2022/06/06 05:48:08;;;;;;;1.15;1.10;;;;;;;20.35;81.90;99922.50;10505678;28;20505;-82
2022/06/06 05:53:15;;;;;;;7.75;1.48;;;;;;;21.23;77.08;99915.91;10539044;28;20116;-81
2022/06/06 05:58:36;;;;;;;1.90;1.17;;;;;;;21.40;74.38;99926.16;10539524;28;20040;-81
2022/06/06 06:04:15;;;;;;;1.48;0.95;;;;;;;21.82;71.56;99934.41;10543851;28;20058;-83
2022/06/06 06:09:45;;;;;;;1.92;0.90;;;;;;;22.31;69.46;99938.50;10528776;28;20501;-82
2022/06/06 06:14:56;;;;;;;0.93;0.80;;;;;;;22.33;66.84;99941.91;10516408;28;20403;-84
2022/06/06 06:20:04;;;;;;;1.30;0.90;;;;;;;22.66;67.62;99948.97;10527469;28;20048;-84
2022/06/06 06:25:09;;;;;;;1.02;0.80;;;;;;;22.00;66.67;99966.88;10517296;28;20486;-84
2022/06/06 06:30:12;;;;;;;0.80;0.75;;;;;;;21.80;65.40;99965.81;10522577;28;20540;-83
2022/06/06 06:35:24;;;;;;;1.92;0.80;;;;;;;22.58;63.79;99971.06;10521219;28;20048;-83
2022/06/06 06:40:48;;;;;;;1.02;0.80;;;;;;;22.35;61.67;99972.09;10518430;28;20048;-85
2022/06/06 06:45:56;;;;;;;0.73;0.63;;;;;;;21.71;64.27;99977.25;10513324;28;20051;-84
2022/06/06 06:51:14;;;;;;;1.33;0.70;;;;;;;21.22;64.32;99970.34;10514200;28;20040;-83
2022/06/06 06:56:43;;;;;;;1.25;0.90;;;;;;;21.01;67.87;99964.81;10515557;28;20432;-81
2022/06/06 07:13:07;;;;;;;1.80;0.77;;;;;;;21.14;66.41;99969.09;10520212;28;20041;-82
2022/06/06 07:18:12;;;;;;;1.83;1.00;;;;;;;21.22;64.88;99973.00;10525883;28;20054;-79
2022/06/06 07:23:16;;;;;;;1.48;0.80;;;;;;;21.28;64.02;99965.34;10535209;28;20037;-79
2022/06/06 07:28:21;;;;;;;1.65;0.80;;;;;;;21.28;62.83;99968.03;10506384;28;20041;-79
2022/06/06 07:33:45;;;;;;;1.17;0.60;;;;;;;21.28;63.78;99961.84;10506371;28;20047;-81
2022/06/06 07:38:50;;;;;;;3.20;0.90;;;;;;;22.04;63.87;99960.31;10511097;28;20068;-83
2022/06/06 07:44:07;;;;;;;1.10;0.60;;;;;;;22.86;61.01;99968.75;10508958;28;20044;-81
2022/06/06 07:49:19;;;;;;;0.85;0.85;;;;;;;23.16;62.20;99962.66;10510213;28;20072;-81
2022/06/06 07:54:39;;;;;;;0.80;0.80;;;;;;;23.42;55.83;99957.75;10510696;28;20105;-81
2022/06/06 07:59:44;;;;;;;0.45;0.45;;;;;;;23.67;57.69;99957.31;10511292;28;20037;-82
2022/06/06 08:05:20;;;;;;;1.08;0.80;;;;;;;23.89;56.40;99963.47;10514019;28;20143;-83
2022/06/06 08:10:43;;;;;;;0.88;0.88;;;;;;;23.91;54.17;99964.22;10509446;28;20051;-87
2022/06/06 08:16:11;;;;;;;1.10;0.73;;;;;;;23.92;52.00;99965.91;10513380;28;20047;-82
2022/06/06 08:21:36;;;;;;;1.60;0.65;;;;;;;23.99;53.40;99963.50;10514341;28;20052;-83
2022/06/06 08:26:41;;;;;;;1.60;0.70;;;;;;;24.42;51.80;99953.34;10514453;28;20037;-83
2022/06/06 08:31:43;;;;;;;0.70;0.70;;;;;;;24.66;50.31;99952.94;10515726;28;20048;-83
2022/06/06 08:36:51;;;;;;;1.27;0.70;;;;;;;24.53;49.54;99951.53;10539884;28;20044;-84
2022/06/06 08:42:23;;;;;;;1.15;0.73;;;;;;;24.69;49.29;99959.00;10532292;28;20487;-84
2022/06/06 08:47:34;;;;;;;0.70;0.70;;;;;;;25.39;46.80;99955.16;10522015;28;20044;-83
2022/06/06 08:53:02;;;;;;;0.70;0.70;;;;;;;25.83;47.46;99953.59;10516561;28;20067;-84
2022/06/06 08:58:55;;;;;;;0.77;0.50;;;;;;;25.18;46.76;99955.31;10517415;28;20131;-83
2022/06/06 09:04:23;;;;;;;1.08;0.65;;;;;;;24.54;49.55;99950.53;10414931;28;20191;-83
2022/06/06 09:10:12;;;;;;;1.80;0.85;;;;;;;24.23;49.45;99952.44;10411576;28;20434;-80
2022/06/06 09:15:39;;;;;;;2.88;0.90;;;;;;;23.81;53.48;99952.56;10428294;28;20061;-81
2022/06/06 09:21:18;;;;;;;1.65;1.50;;;;;;;23.46;51.78;99955.63;10416236;28;20053;-82
2022/06/06 09:26:37;;;;;;;0.75;0.75;;;;;;;23.82;51.49;99947.09;10409414;28;20053;-83
2022/06/06 09:32:21;;;;;;;0.68;0.68;;;;;;;23.60;49.11;99945.41;10373534;23;20500;-80
2022/06/06 09:37:44;;;;;;;1.77;0.80;;;;;;;24.12;49.26;99951.53;10357504;28;20094;-82
2022/06/06 09:42:52;;;;;;;0.80;0.80;;;;;;;24.05;50.82;99952.25;10357244;28;20043;-82
2022/06/06 09:48:30;;;;;;;0.85;0.82;;;;;;;24.13;50.93;99945.22;10359100;28;20046;-80
2022/06/06 09:59:34;;;;;;;0.50;0.50;;;;;;;26.48;44.78;99940.06;10359953;28;20042;-80
2022/06/06 10:05:07;;;;;;;0.80;0.80;;;;;;;25.68;45.00;99944.31;10331009;28;20054;-79
2022/06/06 10:11:03;;;;;;;1.00;0.80;;;;;;;25.17;47.21;99953.63;10347232;28;20050;-80
2022/06/06 10:16:22;;;;;;;1.90;0.75;;;;;;;25.03;46.51;99952.22;10302188;28;20417;-80
2022/06/06 10:21:42;;;;;;;1.50;0.80;;;;;;;25.39;46.21;99955.16;10305307;28;20058;-80
2022/06/06 10:27:02;;;;;;;0.77;0.77;;;;;;;25.77;43.48;99945.28;10308781;28;20086;-80
2022/06/06 10:32:55;;;;;;;0.57;0.52;;;;;;;26.27;41.92;99952.97;10291864;28;20055;-81
2022/06/06 10:38:15;;;;;;;0.70;0.70;;;;;;;25.28;44.15;99952.63;10131686;29;20606;-81
2022/06/06 10:43:45;;;;;;;1.48;0.60;;;;;;;25.65;49.02;99933.81;10147026;29;20072;-80
2022/06/06 10:48:53;;;;;;;0.75;0.60;;;;;;;26.76;43.44;99940.00;10130327;29;20059;-81
2022/06/06 10:54:07;;;;;;;1.02;0.80;;;;;;;27.29;45.05;99934.53;10145551;29;20048;-81
2022/06/06 10:59:29;;;;;;;1.48;0.77;;;;;;;27.17;42.59;99933.94;10147367;29;20076;-81
2022/06/06 11:04:40;;;;;;;1.00;0.70;;;;;;;26.75;42.49;99938.31;10146359;29;20053;-82
2022/06/06 11:10:12;;;;;;;1.05;0.60;;;;;;;26.95;43.01;99920.09;10207471;28;20108;-82
2022/06/06 11:15:14;;;;;;;0.80;0.80;;;;;;;27.31;43.73;99928.97;10349132;28;20210;-82
2022/06/06 11:20:29;;;;;;;1.67;0.70;;;;;;;27.50;41.45;99915.28;10355917;28;20057;-82
2022/06/06 11:26:09;;;;;;;;;;;;;;;27.98;39.33;99911.13;10354809;28;20049;-82
2022/06/06 11:31:39;;;;;;;0.77;0.75;;;;;;;27.90;40.47;99901.13;10351049;28;19930;-82
2022/06/06 11:37:30;;;;;;;1.25;0.85;;;;;;;27.55;41.18;99906.69;10352282;28;20062;-81
2022/06/06 11:43:01;;;;;;;1.75;0.70;;;;;;;26.98;41.84;99900.91;10354791;28;20500;-81
2022/06/06 11:48:35;;;;;;;1.75;0.73;;;;;;;27.21;42.63;99903.94;10354712;28;20046;-80
2022/06/06 11:53:58;;;;;;;1.40;1.00;;;;;;;27.66;42.89;99900.97;10357084;28;20058;-81
2022/06/06 11:59:02;;;;;;;1.48;0.80;;;;;;;28.12;39.01;99896.13;10348573;28;20038;-81
2022/06/06 12:04:23;;;;;;;0.52;0.50;;;;;;;27.43;39.14;99887.22;10345988;28;20519;-79
2022/06/06 12:09:37;;;;;;;2.53;0.80;;;;;;;26.87;40.79;99886.66;10345146;28;20034;-81
2022/06/06 12:15:14;;;;;;;1.02;0.88;;;;;;;26.78;41.99;99875.94;10345560;28;20046;-81
2022/06/06 12:20:24;;;;;;;1.25;0.80;;;;;;;27.24;40.93;99871.25;10347698;28;20038;-80
2022/06/06 12:25:46;;;;;;;1.92;1.20;;;;;;;27.91;40.89;99873.09;10350462;28;20057;-80
2022/06/06 12:31:08;;;;;;;1.33;0.90;;;;;;;28.07;38.03;99860.66;10351862;28;20039;-81
2022/06/06 12:36:14;;;;;;;1.02;0.75;;;;;;;28.12;38.46;99864.53;10358859;28;20030;-81
2022/06/06 12:41:53;;;;;;;1.60;0.70;;;;;;;27.73;41.20;99853.47;10351313;28;20407;-82
2022/06/06 12:47:23;;;;;;;1.00;0.80;;;;;;;27.85;38.52;99844.06;10353423;28;20051;-80
2022/06/06 12:52:56;;;;;;;1.02;0.80;;;;;;;28.33;37.52;99839.75;10360716;28;20496;-80
2022/06/06 12:58:19;;;;;;;0.75;0.75;;;;;;;28.33;38.98;99833.47;10350051;28;20098;-79
2022/06/06 13:03:39;;;;;;;1.15;0.82;;;;;;;29.04;36.94;99824.72;10348298;28;20046;-80
2022/06/06 13:08:56;;;;;;;1.67;0.90;;;;;;;29.06;37.41;99830.78;10347177;28;20043;-81
2022/06/06 13:14:22;;;;;;;1.40;1.20;;;;;;;29.13;38.69;99826.38;10342952;28;20047;-79
2022/06/06 13:19:36;;;;;;;3.28;3.03;;;;;;;28.98;36.77;99816.41;10343630;28;20038;-80
2022/06/06 13:25:06;;;;;;;0.77;0.73;;;;;;;29.50;34.50;99814.03;10345654;28;20065;-80
2022/06/06 13:30:20;;;;;;;0.95;0.65;;;;;;;29.36;33.34;99818.34;10351262;28;20307;-81
2022/06/06 13:35:50;;;;;;;0.60;0.60;;;;;;;28.64;35.49;99795.81;10384143;28;20141;-81
2022/06/06 13:41:27;;;;;;;1.17;0.63;;;;;;;28.01;34.86;99807.25;10365358;28;20085;-83
2022/06/06 13:46:48;;;;;;;0.60;0.60;;;;;;;27.99;36.69;99804.75;10304103;28;20100;-82
2022/06/06 13:51:54;;;;;;;0.85;0.80;;;;;;;27.92;35.68;99809.94;10316765;28;20108;-82
2022/06/06 13:57:28;;;;;;;1.02;0.70;;;;;;;27.95;36.60;99803.38;10301073;28;20157;-82
2022/06/06 14:03:08;;;;;;;0.93;0.70;;;;;;;27.98;35.68;99804.88;10298869;28;20050;-81
2022/06/06 14:08:15;;;;;;;1.42;1.00;;;;;;;27.49;37.59;99799.31;10316863;28;20114;-81
2022/06/06 14:13:38;;;;;;;1.25;0.98;;;;;;;27.66;38.99;99799.22;10318824;28;20050;-82
2022/06/06 14:18:56;;;;;;;1.00;0.80;;;;;;;27.82;37.70;99795.75;10284457;28;20043;-81
2022/06/06 14:24:10;;;;;;;1.42;0.70;;;;;;;28.09;36.00;99800.03;10353891;28;20444;-80
2022/06/06 14:29:22;;;;;;;1.25;0.80;;;;;;;27.66;37.63;99801.06;10352980;28;20038;-81
2022/06/06 14:34:36;;;;;;;1.27;0.82;;;;;;;27.17;37.04;99796.31;10353111;28;20042;-80
2022/06/06 14:39:42;;;;;;;1.27;0.70;;;;;;;27.23;36.17;99797.56;10353856;28;20045;-79
2022/06/06 14:45:00;;;;;;;1.23;0.90;;;;;;;27.38;37.12;99786.97;10358851;28;20054;-79
2022/06/06 14:55:31;;;;;;;1.08;1.00;;;;;;;27.32;38.05;99787.66;10364524;28;20046;-79
2022/06/06 15:00:35;;;;;;;;;;;;;;;27.24;37.85;99787.59;10382485;28;20042;-81
2022/06/06 15:05:37;;;;;;;2.58;0.70;;;;;;;27.95;37.39;99776.38;10380815;28;20398;-81
2022/06/06 15:10:59;;;;;;;1.27;1.00;;;;;;;28.63;34.50;99769.78;10357280;28;20050;-82
2022/06/06 15:16:03;;;;;;;1.17;0.70;;;;;;;27.29;36.51;99771.78;10352084;28;20052;-82
2022/06/06 15:21:06;;;;;;;1.80;0.70;;;;;;;27.27;37.52;99765.66;10350835;28;20042;-82
2022/06/06 15:26:26;;;;;;;1.00;0.93;;;;;;;26.90;37.69;99761.44;10348271;28;20038;-81
2022/06/06 15:32:06;;;;;;;1.17;1.08;;;;;;;26.59;38.44;99764.59;10533587;22;20045;-87
2022/06/06 15:37:43;;;;;;;1.00;0.80;;;;;;;26.47;38.57;99765.88;10504431;28;20110;-85
2022/06/06 15:43:11;;;;;;;0.70;0.70;;;;;;;26.17;40.37;99750.97;10523652;28;20083;-85
2022/06/06 15:48:17;;;;;;;3.33;1.63;;;;;;;25.93;41.43;99751.59;10494403;28;20048;-86
2022/06/06 15:53:57;;;;;;;1.48;1.05;;;;;;;25.86;40.68;99799.00;10504558;28;20044;-84
2022/06/06 15:59:53;;;;;;;5.45;1.40;;;;;;;24.01;47.59;99828.16;10502669;28;20102;-86
2022/06/06 16:05:01;;;;;;;5.78;1.35;;;;;;;22.84;52.20;99840.25;10502896;28;20506;-84
2022/06/06 16:10:26;;;;;;;2.60;1.33;;;;;;;21.61;54.70;99849.56;10507649;28;20050;-84
2022/06/06 16:15:40;;;;;;;1.45;1.27;;;;;;;21.63;55.84;99871.69;10486215;28;20547;-86
2022/06/06 16:20:56;;;;;;;4.07;1.40;;;;;;;22.32;53.07;99886.66;10505525;28;20067;-85
2022/06/06 16:26:07;;;;;;;1.38;1.00;;;;;;;21.86;53.87;99885.88;10507400;28;20048;-83
2022/06/06 16:31:09;;;;;;;2.00;1.33;;;;;;;21.37;55.46;99892.47;10508054;28;20110;-84
2022/06/06 16:36:12;;;;;;;5.90;1.15;;;;;;;21.47;55.90;99899.78;10508538;28;20083;-83
2022/06/06 16:41:15;;;;;;;1.63;1.17;;;;;;;20.97;56.91;99893.84;10519711;28;20039;-84
2022/06/06 16:52:24;;;;;;;2.13;1.50;;;;;;;20.44;59.60;99890.75;10504342;28;20055;-84
2022/06/06 16:57:46;;;;;;;1.85;1.50;;;;;;;20.55;60.31;99881.00;10506417;28;20045;-85
2022/06/06 17:02:58;;;;;;;1.50;1.40;;;;;;;20.69;59.85;99885.28;10532048;28;20104;-85
2022/06/06 17:08:14;;;;;;;1.77;1.30;;;;;;;20.56;59.44;99888.03;10544923;28;20044;-85
2022/06/06 17:13:31;;;;;;;;;;;;;;;20.46;60.02;99892.34;10536348;28;20040;-84
2022/06/06 17:18:35;;;;;;;1.63;1.10;;;;;;;20.85;60.02;99893.84;10525594;28;19921;-85
2022/06/06 17:23:52;;;;;;;1.27;1.17;;;;;;;21.07;58.86;99898.41;10538598;28;20094;-85
2022/06/06 17:29:13;;;;;;;1.50;1.33;;;;;;;21.17;57.71;99894.03;10539763;28;20040;-84
2022/06/06 17:34:26;;;;;;;1.20;1.00;;;;;;;21.15;56.96;99890.59;10542378;28;20048;-85
2022/06/06 17:39:31;;;;;;;2.10;1.15;;;;;;;21.20;57.11;99892.91;10543068;28;20044;-85
2022/06/06 17:44:59;;;;;;;2.30;1.00;;;;;;;21.20;56.14;99887.56;10541413;28;20028;-85
2022/06/06 17:50:03;;;;;;;1.13;1.00;;;;;;;21.29;55.54;99891.34;10534308;28;20100;-85
2022/06/06 17:55:11;;;;;;;2.45;1.48;;;;;;;20.83;58.00;99878.91;10524559;28;20146;-85
2022/06/06 18:00:28;;;;;;;2.47;0.90;;;;;;;20.98;56.59;99880.38;10531157;28;20062;-85
2022/06/06 18:06:11;;;;;;;1.30;1.20;;;;;;;21.11;56.30;99881.13;10512200;28;20044;-86
2022/06/06 18:11:38;;;;;;;1.15;1.00;;;;;;;21.19;55.90;99891.22;10515032;28;20045;-85
2022/06/06 18:16:54;;;;;;;2.05;1.30;;;;;;;21.11;57.83;99889.13;10531051;28;20045;-84
2022/06/06 18:21:59;;;;;;;1.10;1.00;;;;;;;20.88;57.39;99876.72;10542932;28;20080;-85
2022/06/06 18:27:30;;;;;;;1.58;1.23;;;;;;;21.00;56.20;99869.59;10523947;28;20044;-85
2022/06/06 18:32:41;;;;;;;2.17;1.30;;;;;;;20.57;58.66;99865.69;10521665;28;20119;-85
2022/06/06 18:37:59;;;;;;;2.53;1.48;;;;;;;20.42;59.43;99867.69;10523884;28;20055;-87
2022/06/06 18:43:31;;;;;;;1.35;1.25;;;;;;;20.30;60.49;99867.75;10518719;28;20052;-85
2022/06/06 18:49:25;;;;;;;1.20;1.10;;;;;;;20.38;59.79;99871.56;10525740;28;20049;-86
2022/06/06 18:54:44;;;;;;;1.42;1.23;;;;;;;20.29;60.60;99877.59;10481691;28;20053;-85
2022/06/06 19:00:15;;;;;;;1.48;1.38;;;;;;;20.31;59.93;99869.44;10450454;28;20140;-86
2022/06/06 19:06:12;;;;;;;1.75;1.23;;;;;;;20.36;59.06;99870.84;10462678;28;20068;-87
2022/06/06 19:24:43;;;;;;;1.40;1.30;;;;;;;20.30;59.26;99876.63;10453331;28;20601;-84
2022/06/06 19:29:47;;;;;;;1.50;1.10;;;;;;;20.26;59.15;99871.63;10511759;28;20112;-85
2022/06/06 19:34:55;;;;;;;2.33;1.60;;;;;;;20.24;59.21;99879.75;10528788;28;20056;-85
2022/06/06 19:40:06;;;;;;;1.98;1.60;;;;;;;20.19;59.27;99876.56;10525988;28;20048;-86
2022/06/06 19:45:23;;;;;;;2.40;1.40;;;;;;;20.19;60.00;99876.56;10567113;28;20073;-85
2022/06/06 19:50:34;;;;;;;6.15;1.50;;;;;;;20.37;59.41;99877.03;10585715;28;20043;-86
2022/06/06 19:55:43;;;;;;;1.83;1.40;;;;;;;20.28;60.17;99885.72;10575888;28;20047;-86
2022/06/06 20:00:48;;;;;;;1.88;1.70;;;;;;;20.17;60.91;99882.00;10592273;28;20058;-84
2022/06/06 20:06:00;;;;;;;2.05;1.40;;;;;;;20.21;60.88;99871.13;10592375;28;20031;-85
2022/06/06 20:11:14;;;;;;;1.58;1.30;;;;;;;20.41;60.44;99868.66;10565860;28;20074;-84
2022/06/06 20:16:38;;;;;;;1.92;1.20;;;;;;;20.37;60.13;99871.69;10583839;28;20043;-85
2022/06/06 20:21:50;;;;;;;2.17;1.77;;;;;;;20.16;61.23;99869.63;10592275;28;20031;-86
2022/06/06 20:26:54;;;;;;;1.85;1.35;;;;;;;20.05;61.75;99872.22;10606159;28;20538;-85
2022/06/06 20:32:10;;;;;;;1.67;1.50;;;;;;;19.80;61.39;99864.34;10573801;28;20044;-85
2022/06/06 20:37:28;;;;;;;3.00;1.35;;;;;;;19.69;62.23;99858.91;10607216;28;20040;-85
2022/06/06 20:42:32;;;;;;;1.95;1.60;;;;;;;19.80;61.54;99851.00;10605875;28;20100;-85
2022/06/06 20:47:34;;;;;;;1.50;1.40;;;;;;;19.71;62.67;99857.88;10586500;28;20043;-85
2022/06/06 20:52:39;;;;;;;1.80;1.50;;;;;;;19.56;63.03;99861.59;10608591;28;20431;-85
2022/06/06 20:58:00;;;;;;;1.73;1.63;;;;;;;19.72;62.61;99858.72;10606695;28;20040;-85
2022/06/06 21:03:02;;;;;;;1.60;1.50;;;;;;;19.60;63.57;99855.06;10590925;28;20088;-85
2022/06/06 21:08:05;;;;;;;1.60;1.50;;;;;;;19.37;64.22;99856.72;10591188;28;20036;-85
2022/06/06 21:13:07;;;;;;;1.90;1.50;;;;;;;19.56;62.96;99861.59;10592955;28;20226;-85
2022/06/06 21:18:09;;;;;;;1.98;1.42;;;;;;;19.26;65.02;99856.66;10573441;28;20069;-85
2022/06/06 21:23:12;;;;;;;1.67;1.50;;;;;;;19.31;65.76;99862.50;10590801;28;20044;-85
2022/06/06 21:28:15;;;;;;;1.40;1.30;;;;;;;18.95;66.31;99852.56;10609425;22;20074;-79
2022/06/06 21:33:17;;;;;;;2.25;1.42;;;;;;;18.97;65.87;99854.19;10583276;28;20040;-80
2022/06/06 21:38:19;;;;;;;1.83;1.40;;;;;;;18.87;66.80;99863.78;10564096;28;20062;-80
2022/06/06 21:43:20;;;;;;;2.40;1.30;;;;;;;18.74;66.83;99862.91;10558693;28;20054;-80
2022/06/06 21:48:22;;;;;;;1.75;1.60;;;;;;;18.77;66.64;99862.69;10534360;28;20068;-78
2022/06/06 21:53:24;;;;;;;2.47;1.95;;;;;;;18.60;67.80;99864.69;10558567;28;20481;-79
2022/06/06 21:58:31;;;;;;;1.63;1.50;;;;;;;18.62;68.32;99873.41;10557295;28;20038;-81
2022/06/06 22:03:33;;;;;;;1.95;1.65;;;;;;;18.87;67.20;99872.63;10585106;28;20071;-79
2022/06/06 22:08:34;;;;;;;2.50;1.60;;;;;;;18.81;66.55;99866.84;10568973;28;20044;-80
2022/06/06 22:13:36;;;;;;;1.33;1.23;;;;;;;18.73;67.31;99872.72;10567148;28;20481;-81
2022/06/06 22:18:38;;;;;;;1.45;1.33;;;;;;;18.67;67.38;99867.75;10563789;28;20047;-83
2022/06/06 22:23:42;;;;;;;1.88;1.40;;;;;;;18.86;66.51;99867.41;10566208;28;20064;-81
2022/06/06 22:28:44;;;;;;;3.05;2.03;;;;;;;18.43;68.52;99862.28;10556813;28;20040;-81
2022/06/06 22:33:49;;;;;;;1.63;1.52;;;;;;;18.47;68.93;99879.75;10579044;28;20047;-80
2022/06/06 22:38:52;;;;;;;1.52;1.42;;;;;;;18.21;70.29;99883.31;10566741;28;20032;-80
2022/06/06 22:43:54;;;;;;;1.38;1.27;;;;;;;17.97;71.23;99878.59;10576682;28;20051;-81
2022/06/06 22:49:15;;;;;;;1.63;1.52;;;;;;;18.13;70.69;99881.97;10582171;28;20055;-81
2022/06/06 22:54:18;;;;;;;2.58;1.70;;;;;;;18.06;71.73;99869.19;10587338;28;20031;-79
2022/06/06 22:59:19;;;;;;;1.67;1.50;;;;;;;18.14;69.80;99867.72;10572335;28;20044;-79
2022/06/06 23:04:21;;;;;;;2.92;1.45;;;;;;;17.86;71.75;99873.16;10555871;28;20051;-79
2022/06/06 23:09:23;;;;;;;3.53;2.03;;;;;;;17.81;73.07;99869.94;10558044;28;20032;-80
2022/06/06 23:14:24;;;;;;;3.00;2.20;;;;;;;17.55;75.34;99874.22;10550814;28;20056;-81
2022/06/06 23:19:26;;;;;;;3.15;1.73;;;;;;;17.51;74.84;99873.53;10554810;28;20032;-79
2022/06/06 23:24:28;;;;;;;1.90;1.80;;;;;;;17.69;73.78;99865.38;10556768;28;20103;-79
2022/06/06 23:29:30;;;;;;;2.53;1.85;;;;;;;17.68;74.33;99874.28;10555280;28;20085;-79
2022/06/06 23:34:33;;;;;;;2.05;1.80;;;;;;;17.77;73.87;99871.06;10551056;28;20046;-80
2022/06/06 23:39:43;;;;;;;1.83;1.73;;;;;;;17.75;74.39;99863.22;10552841;28;20043;-80
2022/06/06 23:50:26;;;;;;;2.55;2.35;;;;;;;17.77;73.43;99852.47;10545810;28;20139;-79
2022/06/06 23:55:28;;;;;;;1.90;1.80;;;;;;;17.69;73.39;99857.38;10552092;28;20046;-80
